Chilliwack, Canada
Current Conditions -  °F | °C
As of 12:00 PM on Friday 24 Oct 2014 (Local Time) from CYXX Reporting Station
Broken Clouds Broken Clouds  
Wind Chill: 52°   Ceiling: 15000
Heat Index: 52°   Visibility: 30mi
Dew Point: 46°   Wind: 7mph
Humidity: 82%   Direction: 30°NNE
Pressure: 30.07"   Gusts: NA
Location:  49.16°N, 121.95°W
Report Text: CYXX 241900Z 03006KT 30SM SCT040 BKN150 11/08 A3007 RMK SC4AS3 SLP183
Loading
Personal Weather Stations






























Interactive Weather Map
Tropical Storm Tracking
New forecast layout! Learn more

10-Day Weather Forecast

Advertisements
Track Severe Weather on mobile